sensor_id;sensor_type;location;lat;lon;timestamp;P1;durP1;ratioP1;P2;durP2;ratioP2
33840;SDS011;20142;28.494;-16.312;2024-02-26T00:03:25;12.68;;;2.03;;
33840;SDS011;20142;28.494;-16.312;2024-02-26T00:08:26;15.27;;;1.95;;
33840;SDS011;20142;28.494;-16.312;2024-02-26T00:13:28;12.57;;;1.88;;
33840;SDS011;20142;28.494;-16.312;2024-02-26T00:18:30;15.55;;;2.22;;
33840;SDS011;20142;28.494;-16.312;2024-02-26T00:23:31;14.63;;;1.83;;
33840;SDS011;20142;28.494;-16.312;2024-02-26T00:28:33;20.48;;;2.75;;
33840;SDS011;20142;28.494;-16.312;2024-02-26T00:33:35;11.20;;;1.88;;
33840;SDS011;20142;28.494;-16.312;2024-02-26T00:38:36;14.10;;;1.90;;
33840;SDS011;20142;28.494;-16.312;2024-02-26T00:43:40;26.95;;;2.28;;
33840;SDS011;20142;28.494;-16.312;2024-02-26T00:48:43;16.50;;;2.30;;
33840;SDS011;20142;28.494;-16.312;2024-02-26T00:53:44;14.63;;;2.17;;
33840;SDS011;20142;28.494;-16.312;2024-02-26T00:58:46;12.65;;;2.15;;
33840;SDS011;20142;28.494;-16.312;2024-02-26T01:03:48;19.17;;;2.45;;
33840;SDS011;20142;28.494;-16.312;2024-02-26T01:08:49;12.38;;;1.58;;
33840;SDS011;20142;28.494;-16.312;2024-02-26T01:13:51;14.50;;;2.10;;
33840;SDS011;20142;28.494;-16.312;2024-02-26T01:18:57;7.10;;;1.27;;
33840;SDS011;20142;28.494;-16.312;2024-02-26T01:23:58;10.18;;;1.52;;
33840;SDS011;20142;28.494;-16.312;2024-02-26T01:29:00;12.77;;;1.52;;
33840;SDS011;20142;28.494;-16.312;2024-02-26T01:34:02;14.13;;;1.38;;
33840;SDS011;20142;28.494;-16.312;2024-02-26T01:39:03;13.57;;;1.88;;
33840;SDS011;20142;28.494;-16.312;2024-02-26T01:44:05;9.70;;;1.42;;
33840;SDS011;20142;28.494;-16.312;2024-02-26T01:49:11;17.00;;;1.75;;
33840;SDS011;20142;28.494;-16.312;2024-02-26T01:54:14;8.70;;;1.42;;
33840;SDS011;20142;28.494;-16.312;2024-02-26T01:59:16;18.00;;;1.92;;
33840;SDS011;20142;28.494;-16.312;2024-02-26T02:04:18;11.95;;;1.67;;
33840;SDS011;20142;28.494;-16.312;2024-02-26T02:09:20;13.77;;;2.45;;
33840;SDS011;20142;28.494;-16.312;2024-02-26T02:14:24;10.60;;;1.70;;
33840;SDS011;20142;28.494;-16.312;2024-02-26T02:19:26;14.18;;;2.22;;
33840;SDS011;20142;28.494;-16.312;2024-02-26T02:24:28;15.27;;;1.80;;
33840;SDS011;20142;28.494;-16.312;2024-02-26T02:29:29;11.98;;;1.80;;
33840;SDS011;20142;28.494;-16.312;2024-02-26T02:34:31;15.38;;;2.15;;
33840;SDS011;20142;28.494;-16.312;2024-02-26T02:39:34;12.27;;;2.03;;
33840;SDS011;20142;28.494;-16.312;2024-02-26T02:44:36;17.15;;;2.00;;
33840;SDS011;20142;28.494;-16.312;2024-02-26T02:49:38;11.23;;;1.80;;
33840;SDS011;20142;28.494;-16.312;2024-02-26T02:54:39;13.15;;;1.55;;
33840;SDS011;20142;28.494;-16.312;2024-02-26T02:59:43;17.05;;;1.88;;
33840;SDS011;20142;28.494;-16.312;2024-02-26T03:04:45;13.70;;;1.85;;
33840;SDS011;20142;28.494;-16.312;2024-02-26T03:09:46;11.80;;;1.63;;
33840;SDS011;20142;28.494;-16.312;2024-02-26T03:14:48;15.27;;;2.60;;
33840;SDS011;20142;28.494;-16.312;2024-02-26T03:19:50;11.50;;;1.80;;
33840;SDS011;20142;28.494;-16.312;2024-02-26T03:24:54;16.23;;;1.85;;
33840;SDS011;20142;28.494;-16.312;2024-02-26T03:29:55;15.00;;;1.60;;
33840;SDS011;20142;28.494;-16.312;2024-02-26T03:34:57;14.38;;;2.03;;
33840;SDS011;20142;28.494;-16.312;2024-02-26T03:39:59;15.05;;;1.88;;
33840;SDS011;20142;28.494;-16.312;2024-02-26T03:45:01;7.65;;;1.30;;
33840;SDS011;20142;28.494;-16.312;2024-02-26T03:50:04;15.90;;;1.52;;
33840;SDS011;20142;28.494;-16.312;2024-02-26T03:55:06;10.07;;;1.30;;
33840;SDS011;20142;28.494;-16.312;2024-02-26T04:05:23;6.63;;;1.27;;
33840;SDS011;20142;28.494;-16.312;2024-02-26T04:10:25;11.07;;;1.10;;
33840;SDS011;20142;28.494;-16.312;2024-02-26T04:15:26;11.52;;;1.20;;
33840;SDS011;20142;28.494;-16.312;2024-02-26T04:20:28;10.10;;;1.13;;
33840;SDS011;20142;28.494;-16.312;2024-02-26T04:25:30;8.50;;;0.82;;
33840;SDS011;20142;28.494;-16.312;2024-02-26T04:30:32;5.38;;;0.68;;
33840;SDS011;20142;28.494;-16.312;2024-02-26T04:35:33;9.50;;;1.00;;
33840;SDS011;20142;28.494;-16.312;2024-02-26T04:40:38;5.85;;;1.40;;
33840;SDS011;20142;28.494;-16.312;2024-02-26T04:45:40;6.70;;;0.75;;
33840;SDS011;20142;28.494;-16.312;2024-02-26T04:50:41;8.23;;;0.82;;
33840;SDS011;20142;28.494;-16.312;2024-02-26T04:55:43;7.03;;;0.80;;
33840;SDS011;20142;28.494;-16.312;2024-02-26T05:00:45;4.10;;;0.55;;
33840;SDS011;20142;28.494;-16.312;2024-02-26T05:05:47;5.45;;;0.60;;
33840;SDS011;20142;28.494;-16.312;2024-02-26T05:10:48;5.93;;;0.68;;
33840;SDS011;20142;28.494;-16.312;2024-02-26T05:15:50;5.00;;;1.48;;
33840;SDS011;20142;28.494;-16.312;2024-02-26T05:20:53;4.53;;;0.80;;
33840;SDS011;20142;28.494;-16.312;2024-02-26T05:25:54;4.85;;;0.80;;
33840;SDS011;20142;28.494;-16.312;2024-02-26T05:30:56;5.78;;;0.65;;
33840;SDS011;20142;28.494;-16.312;2024-02-26T05:35:58;6.65;;;0.80;;
33840;SDS011;20142;28.494;-16.312;2024-02-26T05:41:04;3.58;;;0.68;;
33840;SDS011;20142;28.494;-16.312;2024-02-26T05:46:06;5.18;;;0.75;;
33840;SDS011;20142;28.494;-16.312;2024-02-26T05:51:08;4.95;;;0.70;;
33840;SDS011;20142;28.494;-16.312;2024-02-26T05:56:10;2.17;;;0.57;;
33840;SDS011;20142;28.494;-16.312;2024-02-26T06:01:12;3.13;;;0.50;;
33840;SDS011;20142;28.494;-16.312;2024-02-26T06:06:17;3.42;;;0.30;;
33840;SDS011;20142;28.494;-16.312;2024-02-26T06:11:19;4.25;;;0.30;;
33840;SDS011;20142;28.494;-16.312;2024-02-26T06:16:20;2.42;;;0.60;;
33840;SDS011;20142;28.494;-16.312;2024-02-26T06:21:22;1.83;;;0.30;;
33840;SDS011;20142;28.494;-16.312;2024-02-26T06:26:24;2.85;;;0.25;;
33840;SDS011;20142;28.494;-16.312;2024-02-26T06:31:29;2.70;;;0.30;;
33840;SDS011;20142;28.494;-16.312;2024-02-26T06:36:30;1.48;;;0.30;;
33840;SDS011;20142;28.494;-16.312;2024-02-26T06:41:32;0.95;;;0.17;;
33840;SDS011;20142;28.494;-16.312;2024-02-26T06:46:34;1.45;;;0.20;;
33840;SDS011;20142;28.494;-16.312;2024-02-26T06:51:36;3.53;;;0.47;;
33840;SDS011;20142;28.494;-16.312;2024-02-26T06:56:37;0.00;;;0.00;;
33840;SDS011;20142;28.494;-16.312;2024-02-26T07:01:40;1.00;;;0.20;;
33840;SDS011;20142;28.494;-16.312;2024-02-26T07:06:42;2.63;;;0.13;;
33840;SDS011;20142;28.494;-16.312;2024-02-26T07:11:44;0.22;;;0.10;;
33840;SDS011;20142;28.494;-16.312;2024-02-26T07:16:46;0.95;;;0.20;;
33840;SDS011;20142;28.494;-16.312;2024-02-26T07:21:48;2.65;;;0.20;;
33840;SDS011;20142;28.494;-16.312;2024-02-26T07:26:49;1.15;;;0.17;;
33840;SDS011;20142;28.494;-16.312;2024-02-26T07:31:51;0.55;;;0.17;;
33840;SDS011;20142;28.494;-16.312;2024-02-26T07:36:53;0.43;;;0.10;;
33840;SDS011;20142;28.494;-16.312;2024-02-26T07:41:54;2.25;;;0.40;;
33840;SDS011;20142;28.494;-16.312;2024-02-26T07:46:56;1.30;;;0.20;;
33840;SDS011;20142;28.494;-16.312;2024-02-26T07:51:58;1.75;;;0.10;;
33840;SDS011;20142;28.494;-16.312;2024-02-26T07:56:59;0.50;;;0.30;;
33840;SDS011;20142;28.494;-16.312;2024-02-26T08:02:04;1.77;;;0.20;;
33840;SDS011;20142;28.494;-16.312;2024-02-26T08:07:06;1.15;;;0.30;;
33840;SDS011;20142;28.494;-16.312;2024-02-26T08:12:08;2.17;;;0.20;;
33840;SDS011;20142;28.494;-16.312;2024-02-26T08:17:10;1.23;;;0.10;;
33840;SDS011;20142;28.494;-16.312;2024-02-26T08:22:11;1.83;;;0.28;;
33840;SDS011;20142;28.494;-16.312;2024-02-26T08:27:17;0.85;;;0.30;;
33840;SDS011;20142;28.494;-16.312;2024-02-26T08:32:19;2.08;;;0.40;;
33840;SDS011;20142;28.494;-16.312;2024-02-26T08:37:21;0.57;;;0.20;;
33840;SDS011;20142;28.494;-16.312;2024-02-26T08:42:23;3.13;;;0.40;;
33840;SDS011;20142;28.494;-16.312;2024-02-26T08:47:25;2.00;;;0.22;;
33840;SDS011;20142;28.494;-16.312;2024-02-26T08:52:26;5.15;;;0.30;;
33840;SDS011;20142;28.494;-16.312;2024-02-26T08:57:28;3.15;;;0.30;;
33840;SDS011;20142;28.494;-16.312;2024-02-26T09:02:30;4.15;;;0.50;;
33840;SDS011;20142;28.494;-16.312;2024-02-26T09:07:31;5.60;;;0.43;;
33840;SDS011;20142;28.494;-16.312;2024-02-26T09:12:34;2.33;;;0.47;;
33840;SDS011;20142;28.494;-16.312;2024-02-26T09:17:36;2.03;;;0.68;;
33840;SDS011;20142;28.494;-16.312;2024-02-26T09:22:37;6.60;;;0.93;;
33840;SDS011;20142;28.494;-16.312;2024-02-26T09:27:39;2.10;;;0.38;;
33840;SDS011;20142;28.494;-16.312;2024-02-26T09:32:41;3.20;;;0.32;;
33840;SDS011;20142;28.494;-16.312;2024-02-26T09:37:47;3.65;;;0.40;;
33840;SDS011;20142;28.494;-16.312;2024-02-26T09:42:50;2.58;;;0.47;;
33840;SDS011;20142;28.494;-16.312;2024-02-26T09:48:00;4.15;;;0.50;;
33840;SDS011;20142;28.494;-16.312;2024-02-26T09:53:04;2.88;;;0.93;;
33840;SDS011;20142;28.494;-16.312;2024-02-26T09:58:10;4.07;;;0.55;;
33840;SDS011;20142;28.494;-16.312;2024-02-26T10:03:18;4.13;;;0.52;;
33840;SDS011;20142;28.494;-16.312;2024-02-26T10:08:23;7.00;;;0.70;;
33840;SDS011;20142;28.494;-16.312;2024-02-26T10:13:25;3.22;;;0.40;;
33840;SDS011;20142;28.494;-16.312;2024-02-26T10:18:27;6.72;;;0.55;;
33840;SDS011;20142;28.494;-16.312;2024-02-26T10:23:29;1.85;;;0.47;;
33840;SDS011;20142;28.494;-16.312;2024-02-26T10:28:30;0.70;;;0.28;;
33840;SDS011;20142;28.494;-16.312;2024-02-26T10:33:33;2.05;;;0.20;;
33840;SDS011;20142;28.494;-16.312;2024-02-26T10:38:38;3.70;;;0.20;;
33840;SDS011;20142;28.494;-16.312;2024-02-26T10:43:41;1.85;;;0.30;;
33840;SDS011;20142;28.494;-16.312;2024-02-26T10:48:50;4.03;;;0.47;;
33840;SDS011;20142;28.494;-16.312;2024-02-26T10:53:56;5.45;;;0.43;;
33840;SDS011;20142;28.494;-16.312;2024-02-26T10:59:02;1.55;;;0.20;;
33840;SDS011;20142;28.494;-16.312;2024-02-26T11:04:04;0.73;;;0.35;;
33840;SDS011;20142;28.494;-16.312;2024-02-26T11:09:06;1.48;;;0.15;;
33840;SDS011;20142;28.494;-16.312;2024-02-26T11:14:13;2.58;;;0.30;;
33840;SDS011;20142;28.494;-16.312;2024-02-26T11:19:15;1.45;;;0.17;;
33840;SDS011;20142;28.494;-16.312;2024-02-26T11:24:17;0.88;;;0.30;;
33840;SDS011;20142;28.494;-16.312;2024-02-26T11:29:20;1.27;;;0.10;;
33840;SDS011;20142;28.494;-16.312;2024-02-26T11:34:23;1.55;;;0.10;;
33840;SDS011;20142;28.494;-16.312;2024-02-26T11:39:26;1.27;;;0.20;;
33840;SDS011;20142;28.494;-16.312;2024-02-26T11:44:30;1.10;;;0.30;;
33840;SDS011;20142;28.494;-16.312;2024-02-26T11:49:32;2.05;;;0.10;;
33840;SDS011;20142;28.494;-16.312;2024-02-26T11:54:45;1.83;;;0.20;;
33840;SDS011;20142;28.494;-16.312;2024-02-26T11:59:55;0.70;;;0.10;;
33840;SDS011;20142;28.494;-16.312;2024-02-26T12:05:11;2.35;;;0.20;;
33840;SDS011;20142;28.494;-16.312;2024-02-26T12:10:38;0.22;;;0.10;;
33840;SDS011;20142;28.494;-16.312;2024-02-26T12:15:44;0.75;;;0.20;;
33840;SDS011;20142;28.494;-16.312;2024-02-26T12:20:59;1.27;;;0.20;;
33840;SDS011;20142;28.494;-16.312;2024-02-26T12:26:04;1.67;;;0.20;;
33840;SDS011;20142;28.494;-16.312;2024-02-26T12:31:05;0.70;;;0.20;;
33840;SDS011;20142;28.494;-16.312;2024-02-26T12:36:07;0.50;;;0.15;;
33840;SDS011;20142;28.494;-16.312;2024-02-26T12:41:09;0.65;;;0.10;;
33840;SDS011;20142;28.494;-16.312;2024-02-26T12:46:10;0.20;;;0.10;;
33840;SDS011;20142;28.494;-16.312;2024-02-26T12:51:14;0.32;;;0.10;;
33840;SDS011;20142;28.494;-16.312;2024-02-26T12:56:17;0.80;;;0.10;;
33840;SDS011;20142;28.494;-16.312;2024-02-26T13:01:21;0.77;;;0.10;;
33840;SDS011;20142;28.494;-16.312;2024-02-26T13:06:24;0.55;;;0.00;;
33840;SDS011;20142;28.494;-16.312;2024-02-26T13:11:26;0.20;;;0.00;;
33840;SDS011;20142;28.494;-16.312;2024-02-26T13:16:29;0.00;;;0.00;;
33840;SDS011;20142;28.494;-16.312;2024-02-26T13:21:31;0.43;;;0.08;;
33840;SDS011;20142;28.494;-16.312;2024-02-26T13:26:33;2.08;;;0.30;;
33840;SDS011;20142;28.494;-16.312;2024-02-26T13:31:38;1.17;;;0.20;;
33840;SDS011;20142;28.494;-16.312;2024-02-26T13:36:41;4.43;;;0.68;;
33840;SDS011;20142;28.494;-16.312;2024-02-26T13:41:43;1.23;;;0.32;;
33840;SDS011;20142;28.494;-16.312;2024-02-26T13:46:44;2.78;;;0.30;;
33840;SDS011;20142;28.494;-16.312;2024-02-26T13:51:47;1.80;;;0.45;;
33840;SDS011;20142;28.494;-16.312;2024-02-26T13:56:48;3.53;;;0.30;;
33840;SDS011;20142;28.494;-16.312;2024-02-26T14:01:50;1.40;;;0.30;;
33840;SDS011;20142;28.494;-16.312;2024-02-26T14:06:53;1.40;;;0.30;;
33840;SDS011;20142;28.494;-16.312;2024-02-26T14:11:55;2.28;;;0.40;;
33840;SDS011;20142;28.494;-16.312;2024-02-26T14:16:57;3.20;;;0.50;;
33840;SDS011;20142;28.494;-16.312;2024-02-26T14:21:59;5.03;;;0.65;;
33840;SDS011;20142;28.494;-16.312;2024-02-26T14:27:01;7.75;;;0.70;;
33840;SDS011;20142;28.494;-16.312;2024-02-26T14:32:03;4.47;;;0.70;;
33840;SDS011;20142;28.494;-16.312;2024-02-26T14:37:05;5.45;;;0.95;;
33840;SDS011;20142;28.494;-16.312;2024-02-26T14:42:07;7.82;;;1.10;;
33840;SDS011;20142;28.494;-16.312;2024-02-26T14:47:10;3.38;;;1.05;;
33840;SDS011;20142;28.494;-16.312;2024-02-26T14:52:11;7.47;;;0.95;;
33840;SDS011;20142;28.494;-16.312;2024-02-26T14:57:13;2.35;;;0.50;;
33840;SDS011;20142;28.494;-16.312;2024-02-26T15:02:15;5.32;;;0.77;;
33840;SDS011;20142;28.494;-16.312;2024-02-26T15:07:17;5.07;;;0.82;;
33840;SDS011;20142;28.494;-16.312;2024-02-26T15:12:20;5.15;;;0.80;;
33840;SDS011;20142;28.494;-16.312;2024-02-26T15:17:22;4.05;;;0.50;;
33840;SDS011;20142;28.494;-16.312;2024-02-26T15:22:25;5.85;;;1.13;;
33840;SDS011;20142;28.494;-16.312;2024-02-26T15:27:27;5.50;;;0.70;;
33840;SDS011;20142;28.494;-16.312;2024-02-26T15:32:29;6.28;;;0.90;;
33840;SDS011;20142;28.494;-16.312;2024-02-26T15:37:30;2.67;;;0.70;;
33840;SDS011;20142;28.494;-16.312;2024-02-26T15:42:32;4.03;;;1.00;;
33840;SDS011;20142;28.494;-16.312;2024-02-26T15:47:34;5.22;;;1.02;;
33840;SDS011;20142;28.494;-16.312;2024-02-26T15:52:39;8.55;;;1.02;;
33840;SDS011;20142;28.494;-16.312;2024-02-26T15:57:41;6.95;;;1.45;;
33840;SDS011;20142;28.494;-16.312;2024-02-26T16:02:43;8.00;;;1.30;;
33840;SDS011;20142;28.494;-16.312;2024-02-26T16:07:54;6.88;;;1.20;;
33840;SDS011;20142;28.494;-16.312;2024-02-26T16:13:00;7.40;;;1.27;;
33840;SDS011;20142;28.494;-16.312;2024-02-26T16:18:02;7.00;;;1.30;;
33840;SDS011;20142;28.494;-16.312;2024-02-26T16:23:05;6.43;;;1.52;;
33840;SDS011;20142;28.494;-16.312;2024-02-26T16:28:08;6.50;;;1.65;;
33840;SDS011;20142;28.494;-16.312;2024-02-26T16:33:10;8.73;;;1.58;;
33840;SDS011;20142;28.494;-16.312;2024-02-26T16:38:12;8.60;;;1.10;;
33840;SDS011;20142;28.494;-16.312;2024-02-26T16:43:14;4.32;;;1.23;;
33840;SDS011;20142;28.494;-16.312;2024-02-26T16:48:15;7.35;;;1.25;;
33840;SDS011;20142;28.494;-16.312;2024-02-26T16:53:17;6.05;;;1.30;;
33840;SDS011;20142;28.494;-16.312;2024-02-26T16:58:19;7.75;;;2.13;;
33840;SDS011;20142;28.494;-16.312;2024-02-26T17:03:24;10.65;;;1.48;;
33840;SDS011;20142;28.494;-16.312;2024-02-26T17:08:25;8.00;;;1.17;;
33840;SDS011;20142;28.494;-16.312;2024-02-26T17:13:27;8.23;;;1.27;;
33840;SDS011;20142;28.494;-16.312;2024-02-26T17:18:29;7.03;;;1.40;;
33840;SDS011;20142;28.494;-16.312;2024-02-26T17:23:31;10.13;;;1.52;;
33840;SDS011;20142;28.494;-16.312;2024-02-26T17:28:33;10.90;;;1.77;;
33840;SDS011;20142;28.494;-16.312;2024-02-26T17:33:40;8.60;;;1.33;;
33840;SDS011;20142;28.494;-16.312;2024-02-26T17:38:43;10.07;;;1.60;;
33840;SDS011;20142;28.494;-16.312;2024-02-26T17:43:46;7.38;;;1.40;;
33840;SDS011;20142;28.494;-16.312;2024-02-26T17:48:48;9.55;;;1.52;;
33840;SDS011;20142;28.494;-16.312;2024-02-26T17:53:50;8.13;;;1.88;;
33840;SDS011;20142;28.494;-16.312;2024-02-26T17:58:51;10.18;;;1.50;;
33840;SDS011;20142;28.494;-16.312;2024-02-26T18:03:53;10.70;;;1.90;;
33840;SDS011;20142;28.494;-16.312;2024-02-26T18:08:55;6.53;;;1.38;;
33840;SDS011;20142;28.494;-16.312;2024-02-26T18:13:57;5.43;;;1.05;;
33840;SDS011;20142;28.494;-16.312;2024-02-26T18:18:58;8.82;;;1.60;;
33840;SDS011;20142;28.494;-16.312;2024-02-26T18:24:00;8.27;;;2.17;;
33840;SDS011;20142;28.494;-16.312;2024-02-26T18:29:02;6.93;;;1.35;;
33840;SDS011;20142;28.494;-16.312;2024-02-26T18:34:05;11.93;;;1.45;;
33840;SDS011;20142;28.494;-16.312;2024-02-26T18:39:07;5.05;;;1.30;;
33840;SDS011;20142;28.494;-16.312;2024-02-26T18:44:11;10.77;;;1.58;;
33840;SDS011;20142;28.494;-16.312;2024-02-26T18:49:15;5.50;;;1.45;;
33840;SDS011;20142;28.494;-16.312;2024-02-26T18:54:17;8.30;;;1.60;;
33840;SDS011;20142;28.494;-16.312;2024-02-26T18:59:19;7.80;;;1.58;;
33840;SDS011;20142;28.494;-16.312;2024-02-26T19:04:22;7.40;;;1.17;;
33840;SDS011;20142;28.494;-16.312;2024-02-26T19:09:23;6.35;;;1.10;;
33840;SDS011;20142;28.494;-16.312;2024-02-26T19:14:25;10.20;;;2.00;;
33840;SDS011;20142;28.494;-16.312;2024-02-26T19:19:27;10.82;;;1.60;;
33840;SDS011;20142;28.494;-16.312;2024-02-26T19:24:30;10.57;;;1.48;;
33840;SDS011;20142;28.494;-16.312;2024-02-26T19:29:32;8.23;;;1.38;;
33840;SDS011;20142;28.494;-16.312;2024-02-26T19:34:35;7.50;;;1.20;;
33840;SDS011;20142;28.494;-16.312;2024-02-26T19:39:39;10.50;;;1.90;;
33840;SDS011;20142;28.494;-16.312;2024-02-26T19:44:40;8.75;;;1.10;;
33840;SDS011;20142;28.494;-16.312;2024-02-26T19:49:42;5.45;;;0.98;;
33840;SDS011;20142;28.494;-16.312;2024-02-26T19:54:44;10.27;;;1.73;;
33840;SDS011;20142;28.494;-16.312;2024-02-26T19:59:45;4.78;;;1.08;;
33840;SDS011;20142;28.494;-16.312;2024-02-26T20:04:47;9.30;;;1.00;;
33840;SDS011;20142;28.494;-16.312;2024-02-26T20:09:49;5.95;;;1.45;;
33840;SDS011;20142;28.494;-16.312;2024-02-26T20:14:51;9.32;;;1.20;;
33840;SDS011;20142;28.494;-16.312;2024-02-26T20:19:52;4.85;;;0.70;;
33840;SDS011;20142;28.494;-16.312;2024-02-26T20:24:58;5.18;;;1.27;;
33840;SDS011;20142;28.494;-16.312;2024-02-26T20:29:59;4.05;;;0.68;;
33840;SDS011;20142;28.494;-16.312;2024-02-26T20:35:01;9.65;;;0.95;;
33840;SDS011;20142;28.494;-16.312;2024-02-26T20:40:04;7.50;;;0.80;;
33840;SDS011;20142;28.494;-16.312;2024-02-26T20:45:06;5.75;;;0.63;;
33840;SDS011;20142;28.494;-16.312;2024-02-26T20:50:10;5.18;;;1.15;;
33840;SDS011;20142;28.494;-16.312;2024-02-26T20:55:12;3.30;;;0.63;;
33840;SDS011;20142;28.494;-16.312;2024-02-26T21:00:15;4.13;;;0.50;;
33840;SDS011;20142;28.494;-16.312;2024-02-26T21:05:17;2.75;;;1.00;;
33840;SDS011;20142;28.494;-16.312;2024-02-26T21:10:19;2.08;;;1.13;;
33840;SDS011;20142;28.494;-16.312;2024-02-26T21:15:25;2.05;;;1.00;;
33840;SDS011;20142;28.494;-16.312;2024-02-26T21:20:28;3.78;;;0.93;;
33840;SDS011;20142;28.494;-16.312;2024-02-26T21:25:32;4.57;;;0.80;;
33840;SDS011;20142;28.494;-16.312;2024-02-26T21:30:34;7.53;;;0.50;;
33840;SDS011;20142;28.494;-16.312;2024-02-26T21:35:35;6.50;;;0.80;;
33840;SDS011;20142;28.494;-16.312;2024-02-26T21:40:37;4.00;;;0.50;;
33840;SDS011;20142;28.494;-16.312;2024-02-26T21:45:39;7.47;;;0.95;;
33840;SDS011;20142;28.494;-16.312;2024-02-26T21:50:41;3.78;;;0.90;;
33840;SDS011;20142;28.494;-16.312;2024-02-26T21:55:43;7.25;;;1.00;;
33840;SDS011;20142;28.494;-16.312;2024-02-26T22:00:45;2.30;;;0.52;;
33840;SDS011;20142;28.494;-16.312;2024-02-26T22:05:47;2.97;;;0.60;;
33840;SDS011;20142;28.494;-16.312;2024-02-26T22:10:48;2.53;;;0.70;;
33840;SDS011;20142;28.494;-16.312;2024-02-26T22:15:51;4.93;;;0.73;;
33840;SDS011;20142;28.494;-16.312;2024-02-26T22:20:53;5.88;;;0.90;;
33840;SDS011;20142;28.494;-16.312;2024-02-26T22:25:55;7.47;;;1.23;;
33840;SDS011;20142;28.494;-16.312;2024-02-26T22:30:57;5.35;;;0.80;;
33840;SDS011;20142;28.494;-16.312;2024-02-26T22:35:58;8.15;;;0.82;;
33840;SDS011;20142;28.494;-16.312;2024-02-26T22:41:00;3.88;;;0.70;;
33840;SDS011;20142;28.494;-16.312;2024-02-26T22:46:02;7.90;;;1.30;;
33840;SDS011;20142;28.494;-16.312;2024-02-26T22:51:04;6.05;;;0.80;;
33840;SDS011;20142;28.494;-16.312;2024-02-26T22:56:06;6.55;;;0.85;;
33840;SDS011;20142;28.494;-16.312;2024-02-26T23:01:08;8.38;;;1.10;;
33840;SDS011;20142;28.494;-16.312;2024-02-26T23:06:10;6.97;;;0.70;;
33840;SDS011;20142;28.494;-16.312;2024-02-26T23:11:11;7.40;;;1.38;;
33840;SDS011;20142;28.494;-16.312;2024-02-26T23:16:13;8.65;;;0.90;;
33840;SDS011;20142;28.494;-16.312;2024-02-26T23:21:15;8.55;;;1.40;;
33840;SDS011;20142;28.494;-16.312;2024-02-26T23:26:18;8.30;;;0.98;;
33840;SDS011;20142;28.494;-16.312;2024-02-26T23:31:20;7.70;;;0.73;;
33840;SDS011;20142;28.494;-16.312;2024-02-26T23:36:22;7.93;;;0.90;;
33840;SDS011;20142;28.494;-16.312;2024-02-26T23:41:25;11.27;;;1.27;;
33840;SDS011;20142;28.494;-16.312;2024-02-26T23:46:31;8.30;;;1.13;;
33840;SDS011;20142;28.494;-16.312;2024-02-26T23:51:37;9.90;;;1.10;;
33840;SDS011;20142;28.494;-16.312;2024-02-26T23:56:38;5.90;;;1.05;;
